Time;durP1;ratioP1;P1;durP2;ratioP2;P2;SDS_P1;SDS_P2;PMS_P1;PMS_P2;Temp;Humidity;BMP_temperature;BMP_pressure;BME280_temperature;BME280_humidity;BME280_pressure;Samples;Min_cycle;Max_cycle;Signal;HPM_P1;HPM_P2
2022/10/25 00:02:20;;;;;;;3.03;1.97;;;;;;;17.20;61.53;98911.31;6917693;28;20298;-78
2022/10/25 00:05:42;;;;;;;2.83;1.73;;;;;;;17.36;60.64;98912.41;6918728;28;20290;-79
2022/10/25 00:09:04;;;;;;;3.37;1.73;;;;;;;17.35;60.57;98911.59;6918323;28;20723;-78
2022/10/25 00:12:26;;;;;;;3.00;1.23;;;;;;;17.39;60.49;98914.72;6918904;28;20761;-78
2022/10/25 00:15:48;;;;;;;1.77;1.63;;;;;;;17.25;61.15;98913.31;6918955;28;20271;-78
2022/10/25 00:19:11;;;;;;;3.67;1.53;;;;;;;17.11;61.82;98910.06;6918275;28;20223;-78
2022/10/25 00:22:32;;;;;;;1.93;1.80;;;;;;;17.47;60.91;98909.69;6895668;28;20231;-78
2022/10/25 00:26:01;;;;;;;2.17;1.67;;;;;;;17.19;61.19;98911.56;6891607;28;20235;-78
2022/10/25 00:29:23;;;;;;;2.17;1.70;;;;;;;17.43;60.99;98919.41;6890941;28;20252;-78
2022/10/25 00:32:45;;;;;;;3.17;2.20;;;;;;;17.16;61.28;98906.63;6891196;28;20239;-78
2022/10/25 00:36:09;;;;;;;1.63;1.53;;;;;;;17.58;60.45;98916.94;6891265;28;20238;-78
2022/10/25 00:39:31;;;;;;;1.50;1.40;;;;;;;18.02;58.64;98904.28;6890516;28;20658;-78
2022/10/25 00:42:52;;;;;;;3.90;1.63;;;;;;;17.70;59.07;98904.03;6891318;28;20232;-79
2022/10/25 00:46:22;;;;;;;2.80;1.60;;;;;;;17.14;60.81;98895.97;6891959;28;20707;-78
2022/10/25 00:49:44;;;;;;;2.30;1.70;;;;;;;16.80;62.22;98913.28;6889818;28;20586;-78
2022/10/25 00:53:08;;;;;;;2.80;1.70;;;;;;;16.96;61.97;98909.78;6891231;28;20741;-78
2022/10/25 00:56:32;;;;;;;1.90;1.50;;;;;;;17.53;60.17;98905.13;6890898;28;20284;-78
2022/10/25 00:59:54;;;;;;;3.40;1.77;;;;;;;17.63;59.24;98887.03;6890182;28;20214;-79
2022/10/25 01:03:17;;;;;;;1.60;1.50;;;;;;;16.84;61.83;98914.44;6890855;28;20251;-78
2022/10/25 01:06:41;;;;;;;4.63;1.87;;;;;;;17.23;60.69;98905.38;6890158;28;20285;-78
2022/10/25 01:10:02;;;;;;;2.97;2.03;;;;;;;17.64;59.62;98899.56;6890292;28;20279;-78
2022/10/25 01:13:24;;;;;;;3.03;1.60;;;;;;;17.80;58.74;98889.78;6893639;28;20209;-79
2022/10/25 01:16:53;;;;;;;2.57;1.60;;;;;;;17.55;59.27;98902.97;6895596;28;20301;-78
2022/10/25 01:20:58;;;;;;;2.80;1.77;;;;;;;17.41;59.98;98913.38;6895140;28;20235;-78
2022/10/25 01:24:47;;;;;;;2.73;1.90;;;;;;;17.73;59.06;98908.19;6895771;28;20219;-78
2022/10/25 01:28:12;;;;;;;6.93;2.00;;;;;;;17.41;59.46;98896.19;6895204;28;20218;-78
2022/10/25 01:31:37;;;;;;;2.93;1.57;;;;;;;17.66;58.98;98913.81;6895490;28;20234;-78
2022/10/25 01:35:05;;;;;;;5.33;2.10;;;;;;;17.22;59.84;98897.47;6895426;28;20294;-78
2022/10/25 01:38:34;;;;;;;1.77;1.63;;;;;;;17.20;60.46;98905.88;6894751;28;20263;-78
2022/10/25 01:42:01;;;;;;;3.40;2.53;;;;;;;17.19;60.23;98893.34;6895110;28;20233;-78
2022/10/25 01:45:26;;;;;;;2.67;1.73;;;;;;;17.21;59.51;98877.56;6895248;28;20369;-78
2022/10/25 01:48:54;;;;;;;3.83;2.00;;;;;;;17.31;59.77;98899.53;6893796;28;20208;-79
2022/10/25 01:52:19;;;;;;;2.33;2.03;;;;;;;17.31;59.58;98896.81;6894910;28;20238;-78
2022/10/25 01:55:47;;;;;;;2.03;1.80;;;;;;;17.16;59.76;98882.91;6894857;28;20299;-78
2022/10/25 01:59:19;;;;;;;2.03;1.70;;;;;;;17.22;60.13;98905.63;6894416;28;20246;-78
2022/10/25 02:02:57;;;;;;;3.27;2.27;;;;;;;16.22;62.90;98900.84;6894913;28;20354;-78
2022/10/25 02:06:25;;;;;;;4.30;1.83;;;;;;;16.88;61.64;98912.88;6894675;28;20267;-78
2022/10/25 02:09:54;;;;;;;4.10;2.13;;;;;;;17.21;60.47;98915.69;6893688;28;20321;-79
2022/10/25 02:13:22;;;;;;;5.40;2.23;;;;;;;17.38;59.48;98913.03;6894149;28;20290;-79
2022/10/25 02:16:45;;;;;;;3.23;1.80;;;;;;;17.11;60.30;98903.78;6894504;28;20626;-79
2022/10/25 02:20:08;;;;;;;1.73;1.60;;;;;;;17.49;59.23;98903.97;6892445;28;20889;-79
2022/10/25 02:23:32;;;;;;;2.60;1.70;;;;;;;17.68;58.77;98899.94;6892581;28;20262;-78
2022/10/25 02:26:54;;;;;;;3.67;2.10;;;;;;;17.53;58.73;98905.97;6894405;28;20278;-78
2022/10/25 02:30:16;;;;;;;2.90;1.70;;;;;;;17.40;58.86;98908.19;6892976;28;20315;-78
2022/10/25 02:33:38;;;;;;;4.50;2.10;;;;;;;16.89;60.46;98897.38;6894009;28;20213;-79
2022/10/25 02:36:59;;;;;;;2.50;2.00;;;;;;;16.55;62.12;98892.88;6893716;28;20228;-78
2022/10/25 02:40:22;;;;;;;4.30;1.90;;;;;;;16.68;61.48;98889.88;6892881;28;20706;-79
2022/10/25 02:44:18;;;;;;;5.00;2.13;;;;;;;16.82;60.86;98896.69;6893515;28;20211;-78
2022/10/25 02:47:39;;;;;;;3.27;2.00;;;;;;;16.84;61.29;98903.56;6891966;28;20353;-79
2022/10/25 02:51:01;;;;;;;6.10;2.20;;;;;;;16.30;62.54;98897.75;6894622;28;20861;-78
2022/10/25 02:54:22;;;;;;;3.87;2.07;;;;;;;16.32;62.62;98901.88;6918763;28;20210;-79
2022/10/25 02:57:45;;;;;;;2.80;2.07;;;;;;;16.01;64.56;98891.41;6919185;28;20271;-79
2022/10/25 03:01:08;;;;;;;3.77;2.13;;;;;;;16.30;63.24;98895.03;6919484;28;20306;-78
2022/10/25 03:04:29;;;;;;;4.90;2.10;;;;;;;16.49;62.71;98888.38;6919165;28;20213;-78
2022/10/25 03:07:51;;;;;;;4.53;2.50;;;;;;;16.78;62.09;98892.78;6919028;28;20216;-79
2022/10/25 03:11:13;;;;;;;4.33;2.20;;;;;;;16.42;62.73;98890.41;6919208;28;20258;-78
2022/10/25 03:14:36;;;;;;;5.37;2.40;;;;;;;15.94;64.14;98900.75;6919119;28;20733;-78
2022/10/25 03:17:57;;;;;;;6.67;2.30;;;;;;;16.28;63.49;98894.44;6918831;28;20242;-78
2022/10/25 03:21:18;;;;;;;2.70;2.30;;;;;;;16.02;63.65;98875.91;6919117;28;20315;-78
2022/10/25 03:24:40;;;;;;;4.33;2.20;;;;;;;16.38;63.33;98891.91;6918693;28;20322;-79
2022/10/25 03:28:01;;;;;;;3.77;2.60;;;;;;;16.59;62.08;98873.09;6919167;28;20212;-79
2022/10/25 03:31:25;;;;;;;5.27;2.40;;;;;;;16.49;62.55;98899.28;6919752;28;20231;-79
2022/10/25 03:34:46;;;;;;;3.97;2.30;;;;;;;16.50;62.63;98909.94;6919180;28;20218;-78
2022/10/25 03:38:08;;;;;;;3.10;2.13;;;;;;;16.66;61.90;98908.34;6918641;28;20808;-79
2022/10/25 03:41:29;;;;;;;4.77;2.47;;;;;;;16.78;61.37;98896.34;6918562;28;20713;-78
2022/10/25 03:44:51;;;;;;;7.57;2.50;;;;;;;16.98;60.35;98893.22;6918035;28;20232;-78
2022/10/25 03:48:14;;;;;;;2.97;2.37;;;;;;;16.97;60.22;98899.69;6916729;28;20293;-79
2022/10/25 03:51:35;;;;;;;4.57;2.87;;;;;;;17.12;59.70;98903.56;6918609;28;20229;-78
2022/10/25 03:54:57;;;;;;;4.73;2.77;;;;;;;17.17;59.71;98914.53;6919681;28;20279;-79
2022/10/25 03:58:19;;;;;;;7.60;3.10;;;;;;;16.70;59.98;98901.34;6918094;28;20253;-78
2022/10/25 04:01:40;;;;;;;5.83;2.43;;;;;;;16.76;60.79;98916.72;6917629;28;20236;-79
2022/10/25 04:05:04;;;;;;;4.03;2.80;;;;;;;16.56;61.43;98921.72;6917297;28;20235;-79
2022/10/25 04:08:26;;;;;;;2.70;2.40;;;;;;;16.55;61.17;98918.19;6916477;28;20230;-79
2022/10/25 04:11:47;;;;;;;5.10;2.30;;;;;;;16.63;61.05;98920.53;6917578;28;20612;-79
2022/10/25 04:15:10;;;;;;;5.43;2.53;;;;;;;16.86;60.48;98925.09;6917270;28;20209;-79
2022/10/25 04:18:31;;;;;;;6.37;2.37;;;;;;;16.91;60.21;98919.72;6916754;28;20620;-79
2022/10/25 04:21:54;;;;;;;3.23;2.20;;;;;;;16.77;61.05;98919.22;6915553;28;20232;-79
2022/10/25 04:25:15;;;;;;;4.10;2.80;;;;;;;16.46;61.38;98910.66;6917234;28;20231;-78
2022/10/25 04:28:37;;;;;;;4.60;2.53;;;;;;;16.16;62.84;98916.22;6916583;28;20239;-78
2022/10/25 04:31:58;;;;;;;3.13;2.27;;;;;;;16.65;61.22;98907.53;6917546;28;20230;-79
2022/10/25 04:35:20;;;;;;;4.13;2.47;;;;;;;16.37;61.39;98917.50;6916459;28;20208;-78
2022/10/25 04:38:43;;;;;;;4.37;2.60;;;;;;;16.15;62.63;98919.19;6916602;28;20616;-79
2022/10/25 04:42:05;;;;;;;5.37;2.47;;;;;;;15.94;63.60;98927.94;6910665;28;20380;-79
2022/10/25 04:45:26;;;;;;;6.97;2.47;;;;;;;15.90;64.08;98915.88;6891091;28;20230;-78
2022/10/25 04:48:48;;;;;;;4.20;2.30;;;;;;;16.19;63.17;98928.50;6905441;28;20213;-78
2022/10/25 04:52:09;;;;;;;4.97;2.60;;;;;;;15.72;64.55;98926.84;6927194;28;20861;-77
2022/10/25 04:55:32;;;;;;;3.93;2.37;;;;;;;16.33;62.37;98922.59;6926257;28;20751;-78
2022/10/25 04:58:54;;;;;;;5.50;2.97;;;;;;;16.57;61.45;98926.13;6920929;28;20208;-79
2022/10/25 05:02:15;;;;;;;5.63;2.53;;;;;;;16.48;61.29;98917.50;6949450;28;20609;-79
2022/10/25 05:05:37;;;;;;;4.90;2.90;;;;;;;16.26;62.54;98921.03;6918322;28;20225;-79
2022/10/25 05:08:58;;;;;;;7.93;2.90;;;;;;;16.14;62.30;98922.94;6905377;28;20220;-78
2022/10/25 05:12:23;;;;;;;5.57;2.90;;;;;;;15.86;63.45;98936.44;6906721;28;20232;-79
2022/10/25 05:15:44;;;;;;;5.43;2.93;;;;;;;15.76;64.27;98933.47;6919790;28;20200;-79
2022/10/25 05:19:06;;;;;;;4.27;3.27;;;;;;;16.01;63.40;98937.63;6921790;28;20693;-79
2022/10/25 05:22:28;;;;;;;7.83;3.50;;;;;;;15.69;63.83;98930.84;6922029;28;20229;-79
2022/10/25 05:25:49;;;;;;;3.70;3.30;;;;;;;16.12;63.15;98931.38;6922053;28;20252;-78
2022/10/25 05:29:13;;;;;;;3.33;2.80;;;;;;;15.61;64.59;98947.53;6911688;28;20205;-78
2022/10/25 05:32:34;;;;;;;7.10;3.40;;;;;;;16.22;62.38;98928.06;6893896;28;20264;-79
2022/10/25 05:35:56;;;;;;;7.57;3.60;;;;;;;15.86;64.53;98931.00;6893826;28;20220;-79
2022/10/25 05:39:17;;;;;;;4.13;2.87;;;;;;;16.03;64.05;98949.09;6894416;28;20802;-78
2022/10/25 05:42:39;;;;;;;5.47;2.63;;;;;;;16.42;61.80;98942.13;6895535;28;20661;-79
2022/10/25 05:46:06;;;;;;;8.53;3.23;;;;;;;16.38;61.92;98941.78;6907583;28;20233;-78
2022/10/25 05:49:28;;;;;;;3.37;2.60;;;;;;;16.25;61.99;98949.31;6921194;28;20227;-78
2022/10/25 05:52:49;;;;;;;3.23;2.27;;;;;;;16.43;61.40;98939.16;6917158;28;20235;-78
2022/10/25 05:56:11;;;;;;;4.70;2.63;;;;;;;16.68;60.48;98958.75;6913020;28;20337;-78
2022/10/25 05:59:32;;;;;;;6.10;2.50;;;;;;;16.55;61.77;98939.13;6908672;28;20218;-78
2022/10/25 06:02:55;;;;;;;7.30;2.60;;;;;;;16.79;60.58;98962.53;6918317;28;20246;-78
2022/10/25 06:06:17;;;;;;;9.03;3.30;;;;;;;16.65;59.93;98961.97;6895355;28;20280;-78
2022/10/25 06:09:38;;;;;;;7.60;2.63;;;;;;;16.57;60.66;98964.25;6895230;28;20211;-79
2022/10/25 06:13:00;;;;;;;5.67;2.93;;;;;;;16.60;60.71;98972.75;6922722;28;20721;-78
2022/10/25 06:16:22;;;;;;;2.83;2.40;;;;;;;16.63;60.23;98966.81;6921910;28;20218;-78
2022/10/25 06:19:45;;;;;;;3.77;2.40;;;;;;;16.72;60.46;98975.44;6904948;28;20628;-78
2022/10/25 06:23:06;;;;;;;3.87;2.40;;;;;;;16.88;59.53;98959.16;6902250;28;20230;-78
2022/10/25 06:26:29;;;;;;;4.13;2.73;;;;;;;17.08;59.20;98986.00;6922117;28;20306;-78
2022/10/25 06:29:50;;;;;;;3.43;2.50;;;;;;;16.68;60.42;98979.75;6921622;28;20305;-79
2022/10/25 06:33:12;;;;;;;4.13;2.90;;;;;;;16.91;59.58;98999.56;6921334;28;20345;-78
2022/10/25 06:36:35;;;;;;;4.00;3.60;;;;;;;16.56;60.59;99020.56;6921350;28;20290;-77
2022/10/25 06:39:56;;;;;;;4.97;3.50;;;;;;;16.39;60.90;99018.81;6920309;28;20601;-79
2022/10/25 06:43:18;;;;;;;7.20;3.90;;;;;;;16.34;61.11;99027.63;6921523;28;20246;-78
2022/10/25 06:46:42;;;;;;;5.10;3.90;;;;;;;16.23;61.70;99027.66;6921338;28;20232;-78
2022/10/25 06:50:04;;;;;;;5.80;3.97;;;;;;;16.35;61.75;99036.63;6901398;28;20232;-80
2022/10/25 06:53:26;;;;;;;6.37;4.60;;;;;;;15.91;62.90;99023.56;6895667;28;20347;-79
2022/10/25 06:56:48;;;;;;;5.63;3.20;;;;;;;16.10;63.19;99033.31;6898269;28;20270;-79
2022/10/25 07:00:11;;;;;;;10.43;5.30;;;;;;;17.21;61.65;99046.50;6917544;28;20321;-80
2022/10/25 07:03:34;;;;;;;3.97;3.17;;;;;;;17.26;59.78;99043.03;6917727;28;20217;-79
2022/10/25 07:06:56;;;;;;;6.97;3.30;;;;;;;17.89;59.23;99047.31;6922217;28;20226;-79
2022/10/25 07:10:19;;;;;;;4.00;2.70;;;;;;;18.55;55.75;99061.00;6906065;28;20649;-79
2022/10/25 07:13:40;;;;;;;7.00;2.63;;;;;;;19.14;54.00;99040.25;6913038;28;20199;-79
2022/10/25 07:17:02;;;;;;;2.67;2.30;;;;;;;19.48;53.39;99034.41;6909593;28;20750;-79
2022/10/25 07:20:23;;;;;;;4.00;2.57;;;;;;;20.46;50.85;99045.75;6919123;28;20312;-79
2022/10/25 07:23:45;;;;;;;5.57;2.60;;;;;;;20.01;51.10;99037.16;6917497;28;20258;-79
2022/10/25 07:27:08;;;;;;;6.73;2.57;;;;;;;21.28;48.02;99053.16;6914086;28;20314;-79
2022/10/25 07:30:29;;;;;;;7.83;3.20;;;;;;;20.93;48.26;99051.34;6918082;28;20228;-79
2022/10/25 07:33:52;;;;;;;8.77;3.67;;;;;;;21.74;47.24;99045.94;6913776;28;20208;-78
2022/10/25 07:37:14;;;;;;;4.73;3.10;;;;;;;22.42;45.13;99037.22;6899515;28;20229;-79
2022/10/25 07:40:35;;;;;;;5.07;2.67;;;;;;;21.88;46.47;99049.78;6919548;28;20311;-79
2022/10/25 07:43:58;;;;;;;4.97;2.47;;;;;;;21.08;48.01;99054.13;6918267;28;20304;-79
2022/10/25 07:47:19;;;;;;;4.37;2.17;;;;;;;21.90;46.43;99051.16;6917496;28;20228;-79
2022/10/25 07:50:41;;;;;;;4.07;2.00;;;;;;;23.37;43.09;99045.31;6916505;28;20320;-79
2022/10/25 07:54:03;;;;;;;4.03;2.10;;;;;;;23.73;41.32;99047.59;6893410;28;20208;-80
2022/10/25 07:57:24;;;;;;;3.00;2.10;;;;;;;22.92;43.92;99027.00;6892791;28;20738;-81
2022/10/25 08:00:48;;;;;;;4.63;1.97;;;;;;;24.41;39.78;99021.78;6905254;28;20262;-79
2022/10/25 08:04:09;;;;;;;3.30;1.70;;;;;;;24.54;40.02;99050.63;6919737;28;20259;-80
2022/10/25 08:07:31;;;;;;;3.97;2.00;;;;;;;25.93;37.84;99044.66;6919805;28;20366;-80
2022/10/25 08:10:53;;;;;;;3.97;1.63;;;;;;;26.69;36.10;99034.88;6895852;28;20368;-80
2022/10/25 08:14:14;;;;;;;3.43;1.67;;;;;;;27.14;35.09;99047.84;6892954;28;20357;-79
2022/10/25 08:17:37;;;;;;;2.13;1.50;;;;;;;27.79;34.08;99042.97;6915968;28;20631;-80
2022/10/25 08:21:00;;;;;;;2.10;1.43;;;;;;;28.00;33.51;99044.13;6911733;28;20826;-80
2022/10/25 08:24:22;;;;;;;3.00;1.67;;;;;;;28.96;32.29;99029.56;6919283;28;20291;-79
2022/10/25 08:27:43;;;;;;;1.60;1.50;;;;;;;27.15;34.35;99032.06;6914744;28;20318;-80
2022/10/25 08:31:05;;;;;;;2.70;1.33;;;;;;;28.94;31.49;99009.56;6908337;28;20750;-80
2022/10/25 08:34:28;;;;;;;7.20;1.70;;;;;;;28.84;31.54;99041.22;6908543;28;20285;-79
2022/10/25 08:37:50;;;;;;;5.37;1.83;;;;;;;28.81;32.52;99039.09;6892678;28;20313;-80
2022/10/25 08:41:17;;;;;;;4.53;2.30;;;;;;;28.18;33.00;99040.41;6910298;28;20239;-80
2022/10/25 08:44:44;;;;;;;3.87;1.77;;;;;;;29.57;31.02;99049.78;6893255;28;20276;-79
2022/10/25 08:48:11;;;;;;;4.40;1.90;;;;;;;28.69;33.00;99052.72;6892351;28;20366;-80
2022/10/25 08:51:37;;;;;;;3.47;1.57;;;;;;;27.52;34.39;99038.25;6921607;28;20226;-79
2022/10/25 08:55:00;;;;;;;3.37;1.73;;;;;;;26.97;35.80;99032.97;6921392;28;20235;-80
2022/10/25 08:58:24;;;;;;;3.57;1.90;;;;;;;25.35;39.40;99046.78;6919127;28;20261;-79
2022/10/25 09:01:51;;;;;;;4.47;1.77;;;;;;;25.02;40.23;99046.88;6919197;28;20271;-80
2022/10/25 09:05:24;;;;;;;2.07;1.30;;;;;;;24.42;40.69;99055.69;6923522;28;20203;-80
2022/10/25 09:08:58;;;;;;;3.07;1.70;;;;;;;24.21;42.39;99052.28;6892330;28;20364;-80
2022/10/25 09:12:23;;;;;;;5.90;2.10;;;;;;;23.72;44.61;99067.97;6891458;28;20603;-80
2022/10/25 09:15:53;;;;;;;4.30;1.50;;;;;;;23.63;42.68;99072.44;6893668;28;20206;-79
2022/10/25 09:19:17;;;;;;;5.23;1.90;;;;;;;23.37;44.49;99065.38;6892354;28;20278;-78
2022/10/25 09:22:45;;;;;;;3.10;1.97;;;;;;;24.08;43.46;99057.59;6898388;28;20218;-78
2022/10/25 09:26:12;;;;;;;3.67;1.70;;;;;;;24.41;42.80;99071.41;6896751;28;20224;-79
2022/10/25 09:29:35;;;;;;;5.73;1.80;;;;;;;23.16;43.97;99069.31;6891632;28;20694;-79
2022/10/25 09:33:00;;;;;;;2.70;1.70;;;;;;;23.62;43.54;99058.94;6893535;28;20296;-79
2022/10/25 09:36:21;;;;;;;7.20;3.43;;;;;;;24.14;42.72;99059.22;6907054;28;20290;-79
2022/10/25 09:39:46;;;;;;;3.10;1.50;;;;;;;23.46;43.21;99047.19;6921001;28;20232;-79
2022/10/25 09:43:16;;;;;;;4.90;1.90;;;;;;;23.41;42.54;99035.34;6904674;28;20347;-76
2022/10/25 09:46:41;;;;;;;4.87;1.93;;;;;;;24.12;40.89;99003.59;6922938;28;20229;-76
2022/10/25 09:50:05;;;;;;;4.83;2.73;;;;;;;24.42;42.27;99052.94;6909793;28;20277;-76
2022/10/25 09:53:26;;;;;;;3.67;1.63;;;;;;;24.04;43.35;99048.25;6911691;28;20231;-76
2022/10/25 09:56:48;;;;;;;4.60;2.03;;;;;;;24.30;42.11;99047.78;6900209;28;20205;-77
2022/10/25 10:00:14;;;;;;;4.70;2.20;;;;;;;24.37;41.72;99052.97;6910219;28;20289;-76
2022/10/25 10:03:36;;;;;;;3.47;1.70;;;;;;;23.89;42.60;99045.63;6921534;28;20798;-76
2022/10/25 10:07:01;;;;;;;4.47;1.37;;;;;;;23.70;43.13;99048.16;6913838;28;20228;-76
2022/10/25 10:10:25;;;;;;;5.17;1.67;;;;;;;23.51;43.24;99057.34;6898245;28;20283;-77
2022/10/25 10:13:49;;;;;;;3.23;1.60;;;;;;;23.84;42.35;99046.41;6920705;28;20280;-76
2022/10/25 10:17:14;;;;;;;2.30;1.30;;;;;;;23.92;42.70;99050.53;6914270;28;20264;-76
2022/10/25 10:20:35;;;;;;;3.20;1.50;;;;;;;24.07;42.06;99048.50;6909621;28;20258;-77
2022/10/25 10:24:04;;;;;;;4.03;1.40;;;;;;;23.86;43.00;99041.47;6922195;28;20843;-76
2022/10/25 10:27:27;;;;;;;2.23;1.90;;;;;;;24.11;41.91;99060.63;6920899;28;20233;-77
2022/10/25 10:30:56;;;;;;;4.67;1.70;;;;;;;24.91;40.29;99048.94;6918976;28;20292;-76
2022/10/25 10:34:24;;;;;;;4.53;2.10;;;;;;;24.37;42.51;99051.03;6922051;28;20335;-77
2022/10/25 10:37:45;;;;;;;2.30;1.60;;;;;;;24.52;42.14;99048.16;6913924;28;20266;-75
2022/10/25 10:41:15;;;;;;;4.47;1.63;;;;;;;23.81;43.31;99035.16;6894435;28;20251;-76
2022/10/25 10:44:36;;;;;;;2.50;1.60;;;;;;;24.53;41.00;99013.13;6894619;28;20229;-77
2022/10/25 10:47:58;;;;;;;2.57;1.33;;;;;;;24.76;41.23;99037.19;6893768;28;20221;-75
2022/10/25 10:51:35;;;;;;;2.83;1.30;;;;;;;25.28;39.46;99034.44;6893885;28;20229;-76
2022/10/25 10:54:57;;;;;;;3.73;1.50;;;;;;;25.06;40.32;99025.84;6916168;28;20250;-77
2022/10/25 10:58:22;;;;;;;2.20;1.70;;;;;;;25.15;40.61;99013.88;6915698;28;20229;-77
2022/10/25 11:01:43;;;;;;;5.27;1.40;;;;;;;24.62;40.94;99003.16;6921541;28;20332;-77
2022/10/25 11:05:19;;;;;;;3.87;1.90;;;;;;;23.90;42.02;99019.72;6921243;28;20604;-77
2022/10/25 11:08:43;;;;;;;4.23;2.00;;;;;;;24.39;40.92;99009.41;6920792;28;20299;-77
2022/10/25 11:12:06;;;;;;;11.80;7.80;;;;;;;24.14;40.99;98996.66;6916878;28;20239;-77
2022/10/25 11:15:32;;;;;;;7.13;4.00;;;;;;;24.75;40.48;98999.69;6901772;28;20292;-78
2022/10/25 11:19:02;;;;;;;3.50;1.40;;;;;;;23.75;40.94;98995.81;6893360;28;20210;-77
2022/10/25 11:22:39;;;;;;;4.77;1.77;;;;;;;23.29;42.50;98952.31;6899074;28;20222;-77
2022/10/25 11:26:09;;;;;;;4.57;1.70;;;;;;;24.45;39.68;98989.78;6922180;28;20271;-77
2022/10/25 11:29:47;;;;;;;2.87;1.43;;;;;;;24.42;40.21;98995.06;6904830;28;20737;-77
2022/10/25 11:33:20;;;;;;;3.67;2.60;;;;;;;23.87;41.28;98967.91;6893019;28;20270;-77
2022/10/25 11:36:55;;;;;;;5.87;4.80;;;;;;;24.98;38.91;98966.63;6893894;28;20191;-77
2022/10/25 11:40:19;;;;;;;2.70;1.30;;;;;;;25.52;38.23;98991.06;6892074;28;20235;-77
2022/10/25 11:43:52;;;;;;;3.13;1.40;;;;;;;24.97;39.84;98987.06;6892779;28;20296;-77
2022/10/25 11:47:25;;;;;;;6.30;3.30;;;;;;;25.38;38.69;98988.22;6892784;28;20325;-77
2022/10/25 11:50:53;;;;;;;2.53;1.70;;;;;;;25.74;38.88;98988.53;6892313;28;20737;-77
2022/10/25 11:54:21;;;;;;;3.60;1.53;;;;;;;25.91;38.07;98983.34;6892037;28;20585;-77
2022/10/25 11:57:47;;;;;;;2.70;1.40;;;;;;;25.24;38.35;98979.00;6900329;28;20846;-76
2022/10/25 12:01:21;;;;;;;4.57;1.50;;;;;;;25.79;37.26;98981.00;6919652;28;20281;-77
2022/10/25 12:04:52;;;;;;;3.47;1.63;;;;;;;25.90;37.23;98970.66;6919454;28;20281;-77
2022/10/25 12:08:22;;;;;;;2.47;1.40;;;;;;;25.41;39.03;98973.81;6912800;28;20594;-77
2022/10/25 12:11:47;;;;;;;3.23;1.50;;;;;;;25.63;38.33;98976.00;6900149;28;20231;-77
2022/10/25 12:15:12;;;;;;;3.77;1.57;;;;;;;25.32;37.47;98978.34;6900838;28;20343;-78
2022/10/25 12:18:37;;;;;;;3.00;1.60;;;;;;;24.88;38.49;98976.94;6919418;28;20190;-77
2022/10/25 12:22:01;;;;;;;3.57;1.97;;;;;;;25.88;37.77;98962.63;6919335;28;20736;-76
2022/10/25 12:25:26;;;;;;;4.30;1.57;;;;;;;25.73;36.87;98973.09;6918784;28;20584;-77
2022/10/25 12:28:48;;;;;;;4.00;1.40;;;;;;;24.87;38.24;98967.03;6917352;28;20277;-77
2022/10/25 12:32:14;;;;;;;3.50;1.97;;;;;;;25.49;37.06;98955.78;6918839;28;20232;-77
2022/10/25 12:35:43;;;;;;;2.30;1.40;;;;;;;25.77;36.20;98963.09;6914182;28;20198;-77
2022/10/25 12:39:12;;;;;;;1.37;1.17;;;;;;;25.73;35.78;98951.00;6918653;28;20250;-77
2022/10/25 12:42:38;;;;;;;3.27;1.60;;;;;;;25.23;37.22;98962.72;6919316;28;20369;-77
2022/10/25 12:46:21;;;;;;;3.07;1.70;;;;;;;25.78;36.45;98954.50;6919539;28;20327;-77
2022/10/25 12:50:21;;;;;;;3.27;1.20;;;;;;;25.96;35.71;98955.63;6918378;28;20304;-77
2022/10/25 12:54:04;;;;;;;1.83;1.50;;;;;;;25.22;37.44;98945.34;6915949;28;20240;-77
2022/10/25 12:57:31;;;;;;;2.20;1.60;;;;;;;24.66;40.59;98927.81;6919464;28;20201;-77
2022/10/25 13:01:05;;;;;;;4.40;1.87;;;;;;;25.44;40.34;98947.56;6918426;28;20848;-77
2022/10/25 13:04:36;;;;;;;7.47;2.10;;;;;;;25.42;38.67;98909.19;6919368;28;20226;-77
2022/10/25 13:07:59;;;;;;;2.23;1.40;;;;;;;25.41;39.12;98939.84;6919309;28;20278;-77
2022/10/25 13:11:32;;;;;;;2.83;1.43;;;;;;;25.43;40.37;98948.69;6906224;28;20252;-77
2022/10/25 13:14:54;;;;;;;4.10;1.83;;;;;;;25.38;38.54;98935.78;6896764;28;20210;-77
2022/10/25 13:18:28;;;;;;;5.17;2.03;;;;;;;23.86;40.74;98953.34;6896182;28;20822;-78
2022/10/25 13:22:11;;;;;;;3.13;1.77;;;;;;;24.33;40.69;98948.00;6896785;28;20313;-77
2022/10/25 13:26:03;;;;;;;2.30;1.40;;;;;;;24.53;40.98;98949.72;6897742;28;20207;-77
2022/10/25 13:29:46;;;;;;;4.63;1.70;;;;;;;24.23;40.24;98942.56;6911976;28;20250;-77
2022/10/25 13:33:32;;;;;;;4.30;1.70;;;;;;;25.12;38.88;98944.66;6924834;28;20235;-77
2022/10/25 13:36:54;;;;;;;2.60;1.43;;;;;;;25.16;38.60;98952.06;6923421;28;20215;-77
2022/10/25 13:40:21;;;;;;;4.70;2.13;;;;;;;24.79;39.13;98931.81;6909295;28;20222;-77
2022/10/25 13:44:01;;;;;;;3.20;1.80;;;;;;;24.87;39.47;98944.94;6896546;28;20423;-77
2022/10/25 13:47:33;;;;;;;3.60;1.70;;;;;;;24.39;39.76;98941.31;6896164;28;20379;-77
2022/10/25 13:50:56;;;;;;;3.87;1.63;;;;;;;24.12;40.90;98938.25;6895959;28;20311;-77
2022/10/25 13:54:18;;;;;;;3.37;1.83;;;;;;;25.28;38.99;98944.19;6895899;28;20202;-77
2022/10/25 13:57:48;;;;;;;4.57;1.63;;;;;;;24.78;40.22;98942.03;6895336;28;20303;-77
2022/10/25 14:01:55;;;;;;;4.57;1.60;;;;;;;24.43;40.49;98930.53;6898693;28;20237;-77
2022/10/25 14:06:10;;;;;;;3.67;1.77;;;;;;;24.94;40.42;98935.22;6898560;28;20278;-77
2022/10/25 14:09:35;;;;;;;3.00;1.70;;;;;;;24.59;39.51;98874.97;6894578;28;20237;-77
2022/10/25 14:13:07;;;;;;;3.70;1.50;;;;;;;25.09;39.92;98926.75;6902185;28;20220;-77
2022/10/25 14:16:30;;;;;;;3.90;1.83;;;;;;;24.93;40.55;98927.22;6921988;28;20677;-77
2022/10/25 14:19:54;;;;;;;4.23;2.10;;;;;;;24.57;40.85;98917.72;6894430;28;20277;-77
2022/10/25 14:23:20;;;;;;;3.67;1.53;;;;;;;24.89;40.62;98918.72;6921878;28;20210;-77
2022/10/25 14:26:49;;;;;;;3.67;1.50;;;;;;;24.41;40.79;98924.47;6922692;28;20220;-77
2022/10/25 14:30:13;;;;;;;2.47;1.60;;;;;;;23.60;42.09;98918.81;6921077;28;20314;-77
2022/10/25 14:33:36;;;;;;;3.33;1.80;;;;;;;24.04;40.62;98900.31;6922752;28;20220;-77
2022/10/25 14:36:58;;;;;;;3.77;1.60;;;;;;;24.12;41.06;98920.94;6921953;28;20205;-77
2022/10/25 14:40:23;;;;;;;3.93;1.40;;;;;;;24.28;40.89;98914.97;6921532;28;20374;-77
2022/10/25 14:43:45;;;;;;;4.43;1.53;;;;;;;24.76;40.19;98913.91;6922484;28;20716;-77
2022/10/25 14:47:26;;;;;;;4.37;1.70;;;;;;;24.44;40.32;98905.44;6918851;28;20210;-77
2022/10/25 14:50:48;;;;;;;1.27;1.17;;;;;;;23.94;41.65;98921.59;6911282;28;20319;-78
2022/10/25 14:54:23;;;;;;;3.40;1.70;;;;;;;24.39;41.40;98916.53;6917971;28;20673;-78
2022/10/25 14:57:46;;;;;;;4.40;1.87;;;;;;;24.09;41.49;98915.97;6921922;28;20221;-77
2022/10/25 15:01:09;;;;;;;3.43;1.70;;;;;;;24.62;43.17;98895.63;6896966;28;20601;-78
2022/10/25 15:04:33;;;;;;;5.17;1.70;;;;;;;23.97;45.47;98910.88;6895145;28;20292;-78
2022/10/25 15:07:56;;;;;;;4.10;2.17;;;;;;;23.97;45.36;98902.59;6895043;28;20228;-77
2022/10/25 15:11:18;;;;;;;8.33;1.93;;;;;;;23.99;45.87;98897.63;6894847;28;20262;-77
2022/10/25 15:14:41;;;;;;;8.47;2.60;;;;;;;23.93;45.55;98908.97;6894957;28;20220;-76
2022/10/25 15:18:03;;;;;;;6.03;1.67;;;;;;;23.84;45.33;98905.97;6897239;28;20349;-80
2022/10/25 15:21:38;;;;;;;4.67;1.90;;;;;;;23.70;45.70;98913.25;6897563;28;20225;-78
2022/10/25 15:25:00;;;;;;;10.43;2.50;;;;;;;22.52;48.55;98878.66;6895696;28;20260;-78
2022/10/25 15:28:22;;;;;;;11.23;2.23;;;;;;;22.64;49.01;98911.31;6893611;28;20311;-78
2022/10/25 15:31:45;;;;;;;6.03;2.13;;;;;;;22.38;49.63;98907.81;6892904;28;20234;-77
2022/10/25 15:35:21;;;;;;;5.67;2.53;;;;;;;22.11;50.39;98898.22;6894110;28;20223;-78
2022/10/25 15:38:43;;;;;;;7.80;2.27;;;;;;;22.33;49.44;98899.56;6894437;28;20255;-77
2022/10/25 15:42:04;;;;;;;7.23;3.10;;;;;;;22.22;49.24;98884.22;6916927;28;20324;-78
2022/10/25 15:45:26;;;;;;;8.37;2.20;;;;;;;21.49;52.24;98911.38;6920374;28;20295;-78
2022/10/25 15:48:49;;;;;;;6.87;1.83;;;;;;;21.53;51.83;98863.13;6902022;28;20996;-78
2022/10/25 15:52:13;;;;;;;6.60;2.63;;;;;;;21.64;51.95;98898.50;6911955;28;20258;-77
2022/10/25 15:55:35;;;;;;;4.37;2.53;;;;;;;21.63;52.20;98887.78;6914074;28;20235;-77
2022/10/25 15:58:57;;;;;;;8.37;2.27;;;;;;;21.58;51.95;98912.47;6919803;28;20195;-77
2022/10/25 16:02:20;;;;;;;9.33;2.30;;;;;;;21.04;53.12;98919.50;6914429;28;20238;-77
2022/10/25 16:05:43;;;;;;;8.03;3.00;;;;;;;20.75;54.19;98915.53;6905986;28;20224;-77
2022/10/25 16:09:05;;;;;;;6.60;2.50;;;;;;;20.71;54.67;98924.56;6897107;28;20309;-77